Time;durP1;ratioP1;P1;durP2;ratioP2;P2;SDS_P1;SDS_P2;PMS_P1;PMS_P2;Temp;Humidity;BMP_temperature;BMP_pressure;BME280_temperature;BME280_humidity;BME280_pressure;Samples;Min_cycle;Max_cycle;Signal;HPM_P1;HPM_P2
2022/10/13 00:00:48;;;;;;;25.95;8.90;;;;;;;19.19;62.53;100955.47;5101433;28;20044;-78
2022/10/13 00:03:15;;;;;;;19.35;9.75;;;;;;;19.13;62.56;100960.44;5104727;28;20100;-79
2022/10/13 00:05:44;;;;;;;19.42;9.18;;;;;;;19.17;62.60;100958.63;5093085;28;20043;-79
2022/10/13 00:08:14;;;;;;;22.83;9.27;;;;;;;19.17;62.37;100958.63;5111760;28;20054;-78
2022/10/13 00:10:41;;;;;;;24.17;10.10;;;;;;;19.10;62.31;100946.94;5092578;28;20075;-78
2022/10/13 00:13:08;;;;;;;15.35;8.43;;;;;;;19.17;62.54;100952.97;5091206;28;20403;-79
2022/10/13 00:15:43;;;;;;;26.67;8.95;;;;;;;19.09;62.20;100942.47;5095520;28;20052;-79
2022/10/13 00:18:10;;;;;;;20.23;9.35;;;;;;;19.04;62.61;100938.94;5108488;28;20058;-77
2022/10/13 00:20:48;;;;;;;23.85;9.80;;;;;;;19.14;62.73;100959.31;5103197;28;20066;-77
2022/10/13 00:23:16;;;;;;;23.85;9.38;;;;;;;19.18;62.54;100968.81;5108168;28;20043;-81
2022/10/13 00:25:46;;;;;;;21.83;9.82;;;;;;;19.12;62.86;100966.44;5103987;28;20074;-80
2022/10/13 00:28:14;;;;;;;;;;;;;;;18.97;62.46;100970.53;5109093;28;20490;-79
2022/10/13 00:30:41;;;;;;;23.58;9.38;;;;;;;18.96;62.54;100973.72;5108349;28;19989;-79
2022/10/13 00:33:10;;;;;;;24.38;9.18;;;;;;;18.94;62.60;100974.06;5110764;28;20051;-78
2022/10/13 00:35:45;;;;;;;21.15;10.88;;;;;;;18.86;62.31;100975.66;5110075;28;20048;-78
2022/10/13 00:38:12;;;;;;;17.73;8.55;;;;;;;18.79;62.42;100958.31;5109319;28;20054;-79
2022/10/13 00:40:48;;;;;;;22.13;9.20;;;;;;;18.90;62.34;100984.34;5112416;28;20047;-80
2022/10/13 00:43:22;;;;;;;20.40;9.18;;;;;;;18.88;62.51;100983.84;5112202;28;20051;-79
2022/10/13 00:45:49;;;;;;;17.42;8.35;;;;;;;18.88;62.61;100983.84;5105354;28;20066;-78
2022/10/13 00:48:19;;;;;;;16.83;8.63;;;;;;;18.86;62.39;100986.16;5103594;28;20593;-79
2022/10/13 00:50:47;;;;;;;22.00;9.43;;;;;;;18.73;62.65;100970.09;5099481;28;20052;-76
2022/10/13 00:53:17;;;;;;;27.92;8.68;;;;;;;18.76;62.51;100986.44;5106875;28;20048;-77
2022/10/13 00:55:44;;;;;;;20.90;8.85;;;;;;;18.62;62.60;100963.88;5113477;28;20058;-76
2022/10/13 00:58:18;;;;;;;22.35;9.00;;;;;;;18.59;62.68;100964.50;5109731;28;20055;-80
2022/10/13 01:00:48;;;;;;;15.70;8.27;;;;;;;18.74;62.78;101000.09;5105179;28;20054;-82
2022/10/13 01:03:15;;;;;;;;;;;;;;;18.69;62.47;101004.66;5105980;28;20044;-81
2022/10/13 01:05:43;;;;;;;20.27;8.27;;;;;;;18.75;63.04;101002.59;5110606;28;19923;-81
2022/10/13 01:08:11;;;;;;;18.27;9.13;;;;;;;18.63;63.08;100983.38;5105505;28;20051;-81
2022/10/13 01:11:16;;;;;;;19.67;10.32;;;;;;;18.75;63.41;100996.09;5110636;28;20054;-79
2022/10/13 01:13:55;;;;;;;17.45;8.55;;;;;;;18.77;63.63;100994.63;5097033;28;20495;-77
2022/10/13 01:16:39;;;;;;;27.13;9.95;;;;;;;18.79;63.32;101008.44;5106119;28;20047;-80
2022/10/13 01:19:18;;;;;;;16.73;8.23;;;;;;;18.82;63.23;101021.94;5098729;28;21337;-78
2022/10/13 01:22:32;;;;;;;19.55;8.32;;;;;;;18.72;63.16;101019.38;5100876;28;20043;-78
2022/10/13 01:25:31;;;;;;;19.30;9.20;;;;;;;18.64;62.96;101004.00;5082251;27;20051;-77
2022/10/13 01:28:33;;;;;;;20.35;8.07;;;;;;;18.69;62.78;101016.00;5105272;28;20044;-77
2022/10/13 01:31:30;;;;;;;22.23;9.00;;;;;;;18.73;62.94;101006.88;5101210;28;20047;-78
2022/10/13 01:34:07;;;;;;;20.80;9.40;;;;;;;18.56;62.94;100988.63;5104851;28;20455;-79
2022/10/13 01:36:46;;;;;;;24.95;10.55;;;;;;;18.54;62.69;100985.31;5106827;27;20040;-78
2022/10/13 01:39:34;;;;;;;16.95;8.00;;;;;;;18.65;62.99;101011.31;5103888;28;20044;-77
2022/10/13 01:42:12;;;;;;;25.27;8.23;;;;;;;18.67;63.24;101012.66;5109782;28;20456;-76
2022/10/13 01:44:50;;;;;;;20.52;7.70;;;;;;;18.46;63.15;100984.09;5109892;28;20109;-77
2022/10/13 01:47:19;;;;;;;23.48;8.85;;;;;;;18.59;63.02;101007.78;5101270;28;20055;-78
2022/10/13 01:49:49;;;;;;;19.77;8.43;;;;;;;18.47;63.14;100987.75;5101741;28;20071;-76
2022/10/13 01:52:19;;;;;;;21.48;8.38;;;;;;;18.62;63.33;101021.28;5107745;28;20498;-76
2022/10/13 01:54:53;;;;;;;15.60;7.70;;;;;;;18.63;63.30;101017.31;5100983;28;20052;-77
2022/10/13 01:57:38;;;;;;;22.10;7.05;;;;;;;18.47;63.74;101014.03;5111395;28;20055;-77
2022/10/13 02:00:11;;;;;;;13.82;7.55;;;;;;;18.30;64.45;101011.09;5094262;28;20043;-77
2022/10/13 02:02:53;;;;;;;20.92;8.38;;;;;;;18.37;64.36;101013.47;5111582;28;20059;-77
2022/10/13 02:05:26;;;;;;;16.02;8.43;;;;;;;18.28;64.74;101004.91;5106084;28;20052;-77
2022/10/13 02:08:09;;;;;;;19.08;7.80;;;;;;;18.15;65.23;101026.47;5100191;28;20052;-77
2022/10/13 02:10:47;;;;;;;13.98;7.07;;;;;;;18.02;65.06;101013.22;5104579;28;20054;-76
2022/10/13 02:13:18;;;;;;;18.02;7.43;;;;;;;18.19;64.60;101019.00;5107684;28;20373;-76
2022/10/13 02:15:49;;;;;;;12.77;7.10;;;;;;;18.09;64.56;100991.00;5103534;28;20043;-77
2022/10/13 02:18:21;;;;;;;16.88;7.30;;;;;;;18.40;64.17;101032.63;5108985;28;20502;-78
2022/10/13 02:20:49;;;;;;;17.25;8.35;;;;;;;18.46;63.88;101039.78;5093663;28;20059;-78
2022/10/13 02:23:17;;;;;;;19.05;8.27;;;;;;;18.36;63.85;101023.94;5108706;28;20063;-77
2022/10/13 02:25:46;;;;;;;16.85;7.90;;;;;;;18.41;63.75;101028.63;5103907;28;20062;-78
2022/10/13 02:28:14;;;;;;;18.50;7.93;;;;;;;18.02;63.79;100981.25;5096385;28;20043;-77
2022/10/13 02:30:42;;;;;;;31.25;8.70;;;;;;;18.35;63.65;101033.56;5097885;28;20062;-78
2022/10/13 02:33:10;;;;;;;21.58;8.40;;;;;;;18.36;63.28;101043.75;5104097;28;20055;-77
2022/10/13 02:35:37;;;;;;;13.05;7.78;;;;;;;18.35;63.18;101032.75;5103400;28;20055;-76
2022/10/13 02:38:04;;;;;;;26.30;8.27;;;;;;;18.23;63.31;101025.69;5097059;28;20398;-77
2022/10/13 02:40:31;;;;;;;19.05;8.25;;;;;;;18.32;63.36;101036.22;5108965;28;20054;-77
2022/10/13 02:42:58;;;;;;;14.45;7.05;;;;;;;18.34;63.19;101031.06;5107225;28;20052;-77
2022/10/13 02:45:25;;;;;;;16.73;8.05;;;;;;;18.32;63.10;101039.03;5100423;28;20047;-78
2022/10/13 02:47:52;;;;;;;16.63;7.82;;;;;;;18.27;63.36;101028.69;5104483;28;20071;-77
2022/10/13 02:50:19;;;;;;;22.10;9.05;;;;;;;18.12;63.34;101000.78;5093184;28;20059;-78
2022/10/13 02:52:46;;;;;;;18.98;8.13;;;;;;;18.34;63.46;101033.91;5104146;28;20462;-78
2022/10/13 02:55:12;;;;;;;22.23;8.60;;;;;;;18.22;63.79;101015.53;5102468;28;20101;-77
2022/10/13 02:57:39;;;;;;;14.55;7.63;;;;;;;18.32;63.65;101027.72;5110341;28;20047;-77
2022/10/13 03:00:07;;;;;;;19.60;8.00;;;;;;;18.23;63.90;101025.69;5090171;28;20044;-76
2022/10/13 03:02:33;;;;;;;21.70;9.07;;;;;;;18.19;64.10;101029.47;5105247;28;20058;-78
2022/10/13 03:05:00;;;;;;;22.40;8.40;;;;;;;18.27;64.21;101037.19;5101464;28;20051;-77
2022/10/13 03:07:27;;;;;;;17.17;8.73;;;;;;;18.32;64.38;101044.69;5105420;28;20054;-77
2022/10/13 03:09:54;;;;;;;15.82;8.32;;;;;;;18.34;64.27;101048.03;5106899;28;20052;-78
2022/10/13 03:12:22;;;;;;;18.05;8.38;;;;;;;18.36;64.12;101046.56;5101621;28;20508;-78
2022/10/13 03:14:49;;;;;;;17.13;8.55;;;;;;;18.15;64.22;101034.94;5103987;28;21801;-78
2022/10/13 03:17:16;;;;;;;18.42;8.95;;;;;;;18.27;64.19;101058.97;5101767;28;20059;-77
2022/10/13 03:19:43;;;;;;;21.40;8.77;;;;;;;18.31;64.12;101079.78;5101243;28;20048;-78
2022/10/13 03:22:13;;;;;;;15.55;8.38;;;;;;;18.16;64.01;101053.56;5108354;28;20568;-78
2022/10/13 03:24:41;;;;;;;21.27;8.38;;;;;;;18.25;63.83;101067.75;5105293;28;20052;-77
2022/10/13 03:27:08;;;;;;;17.02;7.63;;;;;;;18.23;63.64;101075.72;5106812;28;20070;-78
2022/10/13 03:29:35;;;;;;;15.00;7.97;;;;;;;18.16;63.77;101072.50;5102000;28;20378;-79
2022/10/13 03:32:02;;;;;;;16.55;8.77;;;;;;;18.16;63.62;101081.81;5107496;28;20056;-79
2022/10/13 03:34:29;;;;;;;23.17;7.72;;;;;;;17.93;63.70;101060.31;5102884;28;20059;-78
2022/10/13 03:36:56;;;;;;;19.52;8.63;;;;;;;17.91;63.62;101056.97;5099271;28;20490;-78
2022/10/13 03:39:23;;;;;;;14.77;8.18;;;;;;;18.00;63.29;101066.38;5101709;28;20135;-78
2022/10/13 03:41:50;;;;;;;13.77;7.18;;;;;;;17.95;63.33;101056.03;5107715;28;20210;-80
2022/10/13 03:44:17;;;;;;;18.77;8.68;;;;;;;18.00;63.55;101074.84;5105524;28;20051;-80
2022/10/13 03:46:44;;;;;;;17.15;8.25;;;;;;;17.94;63.40;101067.63;5102718;28;20055;-80
2022/10/13 03:49:11;;;;;;;21.52;8.93;;;;;;;17.96;63.17;101071.81;5104135;28;20482;-81
2022/10/13 03:51:38;;;;;;;20.95;10.00;;;;;;;17.89;63.64;101067.78;5098376;28;20055;-79
2022/10/13 03:54:05;;;;;;;23.05;8.98;;;;;;;17.86;63.28;101071.22;5106603;28;20054;-79
2022/10/13 03:56:32;;;;;;;22.95;9.60;;;;;;;17.87;63.58;101082.19;5099126;28;20427;-78
2022/10/13 03:58:59;;;;;;;21.67;10.10;;;;;;;17.84;63.37;101085.66;5104112;28;20040;-81
2022/10/13 04:01:28;;;;;;;16.05;9.68;;;;;;;17.68;63.69;101050.41;5097859;28;20044;-77
2022/10/13 04:03:57;;;;;;;23.48;10.07;;;;;;;17.71;63.51;101058.25;5101596;28;20442;-78
2022/10/13 04:06:25;;;;;;;24.85;10.82;;;;;;;17.76;63.67;101078.78;5110298;28;20051;-78
2022/10/13 04:08:53;;;;;;;19.42;10.10;;;;;;;17.79;63.79;101087.78;5109346;28;20048;-78
2022/10/13 04:11:21;;;;;;;19.48;9.77;;;;;;;17.78;63.84;101086.94;5108045;28;20055;-77
2022/10/13 04:13:48;;;;;;;24.80;10.60;;;;;;;17.72;63.98;101085.34;5110779;27;20058;-77
2022/10/13 04:16:16;;;;;;;24.75;11.38;;;;;;;17.68;63.77;101090.78;5109124;27;20047;-77
2022/10/13 04:18:44;;;;;;;15.60;9.35;;;;;;;17.64;64.15;101089.75;5106350;28;20157;-80
2022/10/13 04:21:13;;;;;;;20.85;8.18;;;;;;;17.59;63.75;101081.38;5115231;28;20052;-81
2022/10/13 04:23:40;;;;;;;18.58;9.20;;;;;;;17.48;63.91;101071.47;5097061;28;20100;-79
2022/10/13 04:26:17;;;;;;;23.42;9.75;;;;;;;17.34;64.08;101060.16;5100619;28;20051;-77
2022/10/13 04:28:46;;;;;;;18.73;10.45;;;;;;;17.49;64.34;101090.06;5113878;28;20130;-78
2022/10/13 04:31:13;;;;;;;21.20;9.65;;;;;;;17.48;64.04;101088.41;5112333;28;20044;-78
2022/10/13 04:33:40;;;;;;;35.72;12.48;;;;;;;17.41;64.44;101071.03;5102943;28;20055;-77
2022/10/13 04:36:10;;;;;;;21.92;9.40;;;;;;;17.44;64.08;101070.41;5103557;27;20066;-81
2022/10/13 04:38:40;;;;;;;22.33;10.07;;;;;;;17.36;64.30;101073.97;5108573;28;20059;-81
2022/10/13 04:41:07;;;;;;;;;;;;;;;17.22;64.40;101083.25;5108091;28;20047;-81
2022/10/13 04:43:34;;;;;;;19.33;10.23;;;;;;;17.21;65.34;101078.75;5107102;28;20285;-80
2022/10/13 04:46:12;;;;;;;29.52;10.82;;;;;;;16.89;64.92;101026.06;5107177;28;20070;-80
2022/10/13 04:48:39;;;;;;;81.72;13.35;;;;;;;17.14;64.62;101054.94;5101291;28;20052;-78
2022/10/13 04:51:09;;;;;;;65.38;11.23;;;;;;;17.29;64.83;101080.00;5106672;28;20051;-78
2022/10/13 04:53:36;;;;;;;61.50;11.45;;;;;;;16.99;64.48;101022.19;5099793;28;20040;-78
2022/10/13 04:56:10;;;;;;;56.10;13.27;;;;;;;17.16;64.81;101044.16;5108892;27;20055;-78
2022/10/13 04:58:37;;;;;;;25.67;11.93;;;;;;;17.35;64.39;101080.75;5108695;28;20051;-80
2022/10/13 05:01:06;;;;;;;23.25;10.77;;;;;;;17.31;64.52;101079.72;5101113;28;20425;-79
2022/10/13 05:03:34;;;;;;;47.67;11.57;;;;;;;17.25;64.73;101076.16;5100564;28;20506;-79
2022/10/13 05:06:01;;;;;;;55.58;12.40;;;;;;;17.22;64.88;101086.06;5110149;28;20051;-80
2022/10/13 05:08:27;;;;;;;42.38;12.35;;;;;;;17.19;64.95;101092.34;5104381;28;20402;-79
2022/10/13 05:11:01;;;;;;;49.47;13.20;;;;;;;17.21;64.82;101101.34;5102060;28;21027;-76
2022/10/13 05:13:29;;;;;;;36.65;12.38;;;;;;;17.26;65.14;101097.56;5108432;28;20512;-75
2022/10/13 05:15:57;;;;;;;38.58;11.38;;;;;;;17.32;65.22;101106.78;5107337;28;20052;-78
2022/10/13 05:18:23;;;;;;;88.30;13.02;;;;;;;17.22;64.97;101113.47;5104248;28;20056;-79
2022/10/13 05:20:50;;;;;;;91.80;14.57;;;;;;;17.28;65.16;101129.16;5103681;28;20516;-79
2022/10/13 05:23:17;;;;;;;87.38;14.30;;;;;;;17.23;65.62;101120.78;5107234;27;20675;-78
2022/10/13 05:25:44;;;;;;;106.55;14.93;;;;;;;17.34;65.32;101138.38;5108614;28;20047;-79
2022/10/13 05:28:11;;;;;;;107.35;13.45;;;;;;;17.38;65.63;101145.06;5108156;28;20054;-78
2022/10/13 05:30:38;;;;;;;60.20;12.80;;;;;;;17.42;65.85;101146.13;5103265;28;20039;-76
2022/10/13 05:33:05;;;;;;;56.63;13.57;;;;;;;17.28;65.60;101118.72;5106217;28;20051;-79
2022/10/13 05:35:32;;;;;;;34.28;11.38;;;;;;;17.50;65.76;101143.41;5098293;28;20064;-75
2022/10/13 05:37:59;;;;;;;94.88;12.18;;;;;;;17.54;65.87;101137.97;5106037;28;20126;-77
2022/10/13 05:40:27;;;;;;;74.07;15.20;;;;;;;17.41;66.04;101121.88;5105944;28;20048;-85
2022/10/13 05:42:54;;;;;;;77.22;13.50;;;;;;;17.53;66.14;101120.16;5102096;28;20068;-74
2022/10/13 05:45:22;;;;;;;67.38;12.90;;;;;;;17.57;66.25;101120.38;5105351;28;20051;-72
2022/10/13 05:47:49;;;;;;;65.07;12.63;;;;;;;17.51;66.10;101116.00;5106213;28;20048;-73
2022/10/13 05:50:16;;;;;;;148.85;15.32;;;;;;;17.39;65.94;101101.56;5103566;28;20044;-81
2022/10/13 05:52:43;;;;;;;149.48;16.45;;;;;;;17.40;66.07;101094.75;5104139;27;20055;-79
2022/10/13 05:55:14;;;;;;;123.57;15.30;;;;;;;17.57;65.77;101113.91;5096672;28;20055;-76
2022/10/13 05:57:47;;;;;;;108.53;14.02;;;;;;;17.50;66.03;101103.03;5097150;28;20052;-77
2022/10/13 06:00:16;;;;;;;96.55;12.43;;;;;;;17.58;66.11;101112.78;5099605;28;20070;-77
2022/10/13 06:02:52;;;;;;;150.30;14.60;;;;;;;17.42;65.81;101095.28;5098352;28;20074;-75
2022/10/13 06:05:21;;;;;;;67.70;11.85;;;;;;;17.49;66.11;101107.84;5095536;28;20047;-78
2022/10/13 06:07:48;;;;;;;66.03;10.25;;;;;;;17.52;66.02;101121.34;5096139;28;20052;-78
2022/10/13 06:10:15;;;;;;;107.30;12.32;;;;;;;17.39;66.03;101108.03;5101279;28;20498;-77
2022/10/13 06:12:42;;;;;;;95.80;11.63;;;;;;;17.52;66.08;101135.44;5100736;28;20502;-79
2022/10/13 06:15:09;;;;;;;85.30;13.07;;;;;;;17.44;66.45;101124.06;5098802;28;20154;-79
2022/10/13 06:17:37;;;;;;;63.20;10.63;;;;;;;17.30;66.33;101115.59;5101151;28;20949;-78
2022/10/13 06:20:05;;;;;;;49.50;10.18;;;;;;;17.39;66.24;101141.09;5095180;28;20044;-79
2022/10/13 06:22:33;;;;;;;33.03;10.00;;;;;;;17.26;66.63;101129.50;5095602;28;20066;-79
2022/10/13 06:25:02;;;;;;;37.53;10.63;;;;;;;17.32;66.77;101135.03;5101594;28;20844;-78
2022/10/13 06:27:29;;;;;;;71.40;13.10;;;;;;;17.12;66.74;101091.91;5098047;28;20048;-79
2022/10/13 06:29:56;;;;;;;76.35;11.93;;;;;;;17.20;66.80;101127.06;5096422;28;20048;-79
2022/10/13 06:32:23;;;;;;;47.92;9.98;;;;;;;17.16;66.45;101120.34;5100706;28;20062;-79
2022/10/13 06:34:50;;;;;;;60.47;11.40;;;;;;;17.11;66.79;101123.28;5099578;28;20055;-78
2022/10/13 06:37:17;;;;;;;30.08;9.82;;;;;;;17.18;66.75;101132.19;5099587;28;20051;-79
2022/10/13 06:39:50;;;;;;;26.83;11.23;;;;;;;17.21;66.69;101140.84;5099690;28;20529;-75
2022/10/13 06:42:17;;;;;;;57.03;13.35;;;;;;;17.24;66.76;101140.25;5106879;28;20062;-82
2022/10/13 06:44:44;;;;;;;63.80;12.27;;;;;;;17.26;67.05;101145.56;5103544;28;20498;-81
2022/10/13 06:47:11;;;;;;;57.75;11.40;;;;;;;17.30;67.31;101155.09;5099831;28;20524;-76
2022/10/13 06:49:38;;;;;;;83.88;13.80;;;;;;;17.20;67.27;101144.84;5093163;28;20044;-76
2022/10/13 06:52:05;;;;;;;73.13;12.63;;;;;;;17.19;67.52;101136.66;5090738;28;20056;-76
2022/10/13 06:54:32;;;;;;;58.72;12.02;;;;;;;17.16;67.21;101138.16;5110424;28;20052;-78
2022/10/13 06:56:58;;;;;;;124.45;14.82;;;;;;;17.20;67.11;101130.72;5112543;28;20052;-81
2022/10/13 06:59:26;;;;;;;112.65;15.18;;;;;;;17.41;67.48;101155.75;5102831;28;20050;-83
2022/10/13 07:01:53;;;;;;;56.03;10.77;;;;;;;17.35;67.45;101152.16;5103566;28;20059;-82
2022/10/13 07:04:21;;;;;;;52.10;10.80;;;;;;;17.11;67.21;101100.72;5109437;28;20062;-83
2022/10/13 07:06:49;;;;;;;67.45;14.82;;;;;;;17.48;67.00;101153.34;5108977;28;20501;-81
2022/10/13 07:09:16;;;;;;;164.27;21.70;;;;;;;17.49;67.13;101158.66;5114184;28;20062;-82
2022/10/13 07:11:44;;;;;;;77.10;13.70;;;;;;;17.16;67.06;101094.94;5109328;28;20071;-82
2022/10/13 07:14:12;;;;;;;69.43;14.25;;;;;;;17.51;67.04;101156.38;5103595;27;20055;-82
2022/10/13 07:16:39;;;;;;;66.72;14.32;;;;;;;17.47;67.12;101154.47;5111618;28;20051;-81
2022/10/13 07:19:06;;;;;;;88.25;17.23;;;;;;;17.51;67.08;101167.66;5106067;28;20064;-81
2022/10/13 07:21:33;;;;;;;121.13;18.05;;;;;;;17.52;67.14;101180.63;5094642;28;20048;-81
2022/10/13 07:24:02;;;;;;;89.28;15.50;;;;;;;17.42;67.45;101160.22;5100602;28;20058;-81
2022/10/13 07:26:31;;;;;;;106.13;15.98;;;;;;;17.29;67.60;101147.75;5103692;28;20051;-81
2022/10/13 07:28:58;;;;;;;42.35;12.70;;;;;;;17.41;67.18;101167.03;5105251;28;20055;-81
2022/10/13 07:31:25;;;;;;;72.07;18.45;;;;;;;17.40;67.25;101160.56;5097353;28;20050;-80
2022/10/13 07:33:52;;;;;;;101.72;19.75;;;;;;;17.53;67.78;101178.66;5103597;28;20055;-83
2022/10/13 07:36:19;;;;;;;124.55;17.45;;;;;;;17.55;67.99;101172.69;5104415;28;20074;-79
2022/10/13 07:38:46;;;;;;;83.95;16.67;;;;;;;17.65;67.87;101172.50;5104684;28;20057;-77
2022/10/13 07:41:14;;;;;;;55.10;15.50;;;;;;;17.45;67.53;101132.22;5104212;28;20059;-76
2022/10/13 07:43:41;;;;;;;66.05;15.85;;;;;;;17.63;67.58;101155.84;5106270;28;20047;-77
2022/10/13 07:46:11;;;;;;;124.93;16.13;;;;;;;17.80;67.91;101174.19;5100456;28;20522;-78
2022/10/13 07:48:37;;;;;;;;;;;;;;;17.66;68.11;101191.09;5102255;28;20062;-78
2022/10/13 07:51:07;;;;;;;152.70;16.17;;;;;;;17.78;67.97;101199.94;5093464;28;19924;-77
2022/10/13 07:53:35;;;;;;;96.30;13.63;;;;;;;17.81;67.73;101198.47;5101093;28;20058;-76
2022/10/13 07:56:04;;;;;;;45.33;12.15;;;;;;;17.75;67.86;101201.38;5097413;28;20442;-76
2022/10/13 07:58:32;;;;;;;60.17;14.20;;;;;;;17.81;67.97;101195.63;5098400;28;20499;-76
2022/10/13 08:01:00;;;;;;;56.25;15.43;;;;;;;17.90;67.79;101213.53;5097751;28;20048;-77
2022/10/13 08:03:27;;;;;;;89.82;17.17;;;;;;;17.89;68.05;101207.06;5099054;28;20047;-76
2022/10/13 08:05:58;;;;;;;63.13;15.32;;;;;;;17.93;67.69;101204.44;5098249;28;20047;-76
2022/10/13 08:08:24;;;;;;;;;;;;;;;17.92;67.45;101211.25;5098854;28;20040;-74
2022/10/13 08:10:51;;;;;;;79.72;17.05;;;;;;;17.89;67.19;101203.41;5098598;28;20259;-74
2022/10/13 08:13:20;;;;;;;62.55;16.02;;;;;;;17.93;67.20;101207.25;5095728;28;20054;-73
2022/10/13 08:15:46;;;;;;;45.70;14.95;;;;;;;18.00;67.61;101213.31;5101654;28;20516;-75
2022/10/13 08:18:14;;;;;;;48.50;17.00;;;;;;;18.08;67.58;101228.69;5096627;28;20058;-74
2022/10/13 08:20:43;;;;;;;54.30;17.15;;;;;;;18.16;67.53;101234.47;5095575;28;20043;-74
2022/10/13 08:23:11;;;;;;;63.78;16.85;;;;;;;18.16;67.64;101236.47;5099574;28;20058;-74
2022/10/13 08:25:42;;;;;;;58.38;16.58;;;;;;;17.82;67.49;101181.22;5096399;28;20047;-74
2022/10/13 08:28:21;;;;;;;39.83;17.17;;;;;;;18.30;67.39;101242.09;5093819;28;20052;-74
2022/10/13 08:30:56;;;;;;;32.10;14.35;;;;;;;18.27;67.59;101237.06;5099049;28;20494;-76
2022/10/13 08:33:24;;;;;;;35.40;12.82;;;;;;;17.98;67.39;101207.13;5094288;28;20076;-76
2022/10/13 08:35:52;;;;;;;36.03;14.50;;;;;;;18.33;67.41;101238.66;5095829;28;20059;-76
2022/10/13 08:38:19;;;;;;;37.08;14.93;;;;;;;18.20;67.56;101251.63;5099090;28;20051;-75
2022/10/13 08:40:48;;;;;;;26.35;13.88;;;;;;;18.15;67.81;101246.94;5099601;28;20044;-75
2022/10/13 08:43:21;;;;;;;36.75;14.13;;;;;;;17.81;67.72;101226.72;5095142;28;20066;-76
2022/10/13 08:45:50;;;;;;;30.88;14.70;;;;;;;17.80;68.35;101240.00;5093977;28;20593;-75
2022/10/13 08:48:21;;;;;;;34.35;14.85;;;;;;;17.72;68.28;101252.00;5096912;28;20044;-76
2022/10/13 08:50:53;;;;;;;32.35;13.85;;;;;;;17.79;68.07;101243.16;5101749;28;20826;-76
2022/10/13 08:53:36;;;;;;;37.70;15.40;;;;;;;17.88;68.04;101250.59;5097447;28;21188;-75
2022/10/13 08:56:23;;;;;;;46.97;16.02;;;;;;;18.06;67.87;101260.13;5097531;28;20059;-76
2022/10/13 08:58:53;;;;;;;41.90;14.93;;;;;;;18.10;67.67;101241.38;5095852;28;20054;-76
2022/10/13 09:01:29;;;;;;;34.22;13.38;;;;;;;18.25;67.59;101265.66;5098055;28;20054;-77
2022/10/13 09:04:25;;;;;;;31.05;14.90;;;;;;;18.47;67.40;101273.38;5101005;28;20327;-76
2022/10/13 09:06:57;;;;;;;36.60;15.98;;;;;;;18.37;67.32;101251.81;5101381;28;20497;-75
2022/10/13 09:09:24;;;;;;;34.03;14.05;;;;;;;18.35;67.20;101270.25;5108794;28;20085;-76
2022/10/13 09:11:51;;;;;;;44.05;17.20;;;;;;;18.05;67.14;101233.03;5110296;28;20193;-75
2022/10/13 09:14:26;;;;;;;41.05;13.63;;;;;;;18.28;67.29;101264.19;5110139;28;20074;-76
2022/10/13 09:16:55;;;;;;;41.58;15.35;;;;;;;18.33;67.19;101261.28;5102988;28;20056;-77
2022/10/13 09:19:32;;;;;;;28.40;12.60;;;;;;;18.10;67.59;101275.28;5094560;28;20063;-76
2022/10/13 09:22:22;;;;;;;37.38;15.23;;;;;;;17.62;67.83;101207.84;5097077;28;20055;-76
2022/10/13 09:25:14;;;;;;;33.13;15.75;;;;;;;18.28;67.45;101276.34;5103276;28;20055;-77
2022/10/13 09:27:58;;;;;;;35.80;17.50;;;;;;;18.46;67.01;101254.72;5101048;28;20047;-76
2022/10/13 09:30:45;;;;;;;34.30;17.25;;;;;;;18.74;67.02;101272.53;5103604;28;20070;-76
2022/10/13 09:33:12;;;;;;;41.95;18.30;;;;;;;18.73;66.85;101281.31;5104884;28;20048;-76
2022/10/13 09:35:42;;;;;;;39.05;18.10;;;;;;;18.85;66.31;101276.78;5107016;28;20421;-80
2022/10/13 09:38:21;;;;;;;36.83;16.77;;;;;;;18.97;66.52;101252.75;5103847;28;20099;-78
2022/10/13 09:41:03;;;;;;;42.40;18.85;;;;;;;19.45;66.10;101278.41;5100870;28;20052;-79
2022/10/13 09:43:45;;;;;;;42.38;18.55;;;;;;;19.61;66.11;101270.34;5107346;27;20082;-79
2022/10/13 09:46:23;;;;;;;33.72;17.88;;;;;;;20.01;65.90;101253.44;5105023;28;20058;-79
2022/10/13 09:48:53;;;;;;;33.67;17.73;;;;;;;20.60;64.94;101262.47;5104275;28;20054;-78
2022/10/13 09:51:26;;;;;;;36.83;16.88;;;;;;;21.29;64.64;101256.78;5102351;27;20031;-80
2022/10/13 09:53:53;;;;;;;34.28;17.52;;;;;;;22.31;62.91;101249.47;5097983;28;20098;-80
2022/10/13 09:56:32;;;;;;;31.10;18.20;;;;;;;23.13;61.54;101220.59;5097071;28;20055;-79
2022/10/13 09:59:20;;;;;;;28.45;16.20;;;;;;;24.21;60.05;101233.78;5099812;28;20056;-79
2022/10/13 10:01:50;;;;;;;32.42;16.98;;;;;;;25.21;58.47;101242.69;5096898;28;20115;-80
2022/10/13 10:04:22;;;;;;;27.75;16.48;;;;;;;25.94;57.05;101241.44;5101242;28;20071;-80
2022/10/13 10:06:50;;;;;;;26.85;16.20;;;;;;;26.69;55.66;101244.16;5097049;28;20143;-79
2022/10/13 10:09:34;;;;;;;30.92;16.80;;;;;;;27.32;54.16;101257.44;5098639;28;20039;-80
2022/10/13 10:12:03;;;;;;;29.33;17.75;;;;;;;27.56;53.33;101264.91;5097391;28;20066;-80
2022/10/13 10:14:33;;;;;;;28.58;16.38;;;;;;;28.01;52.05;101263.31;5104143;28;20051;-80
2022/10/13 10:17:29;;;;;;;37.00;16.98;;;;;;;28.47;51.31;101251.78;5102646;28;20056;-79
2022/10/13 10:19:56;;;;;;;31.15;18.48;;;;;;;29.07;50.41;101271.19;5100754;28;20051;-79
2022/10/13 10:22:23;;;;;;;31.58;17.58;;;;;;;29.57;48.94;101262.31;5098480;28;20060;-79
2022/10/13 10:24:58;;;;;;;32.38;16.85;;;;;;;29.79;47.50;101254.81;5100096;28;20063;-79
2022/10/13 10:27:40;;;;;;;27.35;16.52;;;;;;;29.97;47.62;101271.00;5097574;28;20051;-78
2022/10/13 10:30:16;;;;;;;28.98;17.45;;;;;;;30.21;47.19;101263.03;5097844;28;20051;-79
2022/10/13 10:33:07;;;;;;;28.73;17.05;;;;;;;30.67;46.31;101257.63;5102185;28;20058;-79
2022/10/13 10:35:47;;;;;;;29.42;16.67;;;;;;;31.19;45.14;101251.75;5094633;28;20706;-79
2022/10/13 10:38:38;;;;;;;28.23;16.67;;;;;;;31.56;44.35;101265.94;5101070;28;20048;-78
2022/10/13 10:41:24;;;;;;;24.85;16.30;;;;;;;31.80;44.37;101260.66;5097700;28;20043;-78
2022/10/13 10:44:03;;;;;;;29.50;16.90;;;;;;;32.08;42.63;101236.78;5099951;28;20466;-79
2022/10/13 10:46:34;;;;;;;27.00;18.05;;;;;;;32.16;41.73;101238.41;5102589;28;20055;-78
2022/10/13 10:49:12;;;;;;;28.55;16.98;;;;;;;32.38;41.68;101241.28;5094350;28;20051;-78
2022/10/13 10:51:39;;;;;;;29.10;17.98;;;;;;;32.37;41.02;101236.75;5095189;28;20501;-79
2022/10/13 10:54:15;;;;;;;27.77;16.70;;;;;;;32.60;40.78;101257.41;5104352;28;20320;-78
2022/10/13 10:56:57;;;;;;;28.33;16.77;;;;;;;32.82;40.07;101216.88;5099779;28;20047;-78
2022/10/13 10:59:35;;;;;;;27.52;17.23;;;;;;;33.15;39.56;101230.81;5095164;28;20051;-79
2022/10/13 11:02:05;;;;;;;31.70;16.70;;;;;;;33.23;39.02;101234.50;5094145;28;20052;-78
2022/10/13 11:04:44;;;;;;;29.73;16.85;;;;;;;33.47;38.58;101229.84;5100224;28;20063;-78
2022/10/13 11:07:36;;;;;;;;;;;;;;;33.57;40.93;101234.78;5101814;28;20055;-79
2022/10/13 11:10:16;;;;;;;31.85;18.30;;;;;;;33.82;39.16;101207.72;5076592;28;22485;-79
2022/10/13 11:12:49;;;;;;;31.20;16.90;;;;;;;34.00;38.15;101236.56;5099162;28;20157;-78
2022/10/13 11:15:40;;;;;;;31.80;19.10;;;;;;;34.02;38.18;101237.81;5099869;28;20490;-79
2022/10/13 11:18:44;;;;;;;34.38;19.58;;;;;;;34.45;37.88;101251.94;5095905;28;20060;-78
2022/10/13 11:21:11;;;;;;;38.70;21.40;;;;;;;34.42;36.50;101238.28;5097900;28;20043;-80
2022/10/13 11:23:47;;;;;;;35.33;18.02;;;;;;;34.64;36.41;101221.53;5094738;28;20136;-80
2022/10/13 11:26:26;;;;;;;41.13;19.75;;;;;;;35.10;36.06;101237.59;5091556;28;20051;-79
2022/10/13 11:28:53;;;;;;;33.97;19.60;;;;;;;35.07;35.61;101223.94;5096174;28;20052;-79
2022/10/13 11:31:46;;;;;;;39.30;20.15;;;;;;;35.02;35.20;101219.47;5093370;28;20079;-78
2022/10/13 11:34:28;;;;;;;32.53;18.67;;;;;;;34.96;35.27;101226.13;5089895;28;20459;-79